Flag for Vietnam

Past Weather in 16°29'41.1"N, 107°34'56.3"E, Vietnam — Yesterday and Last 2 Weeks

Currently: 72 °F. Light rain. Fog. (Weather station: Hue Airport, Vietnam). See more current weather

Past Weather in 16°29'41.1"N, 107°34'56.3"E — Graph

°F

16°29'41.1"N, 107°34'56.3"E Temperature Yesterday

Maximum temperature yesterday: 84 °F (at 11:30 am)
Minimum temperature yesterday: 72 °F (at 12:00 am)
Average temperature yesterday: 75 °F

High & Low Weather Summary for the Past Weeks

 TemperatureHumidityPressure
High84 °F (Jan 24, 11:30 am)100% (Jan 10, 11:30 pm)30.15 "Hg (Jan 10, 11:30 pm)
Low63 °F (Jan 19, 4:30 am)58% (Jan 15, 3:00 pm)29.77 "Hg (Jan 22, 3:00 pm)
Average71 °F88%30.01 "Hg
* Reported Jan 10 8:00 am — Jan 25 8:00 am, 16°29'41.1"N, 107°34'56.3"E. Weather by CustomWeather, © 2022

Note: Actual official high and low records may vary slightly from our data, if they occured in-between our weather recording intervals... More about our weather records

16°29'41.1"N, 107°34'56.3"E Weather History for the Previous 24 Hours

Scroll right to see more
 ConditionsComfort  
Time TempWeatherWind HumidityBarometerVisibility
8:00 am
Tue, Jan 25
72 °FFog.3 mph100%29.98 "Hg1 mi
7:00 am72 °FFog.5 mph100%29.98 "Hg1 mi
6:30 am72 °FFog.5 mph94%29.95 "Hg1 mi
6:00 am70 °FFog.2 mph100%29.92 "Hg1 mi
5:30 am70 °FFog.2 mph94%29.92 "Hg1 mi
5:00 am70 °FFog.2 mph100%29.92 "Hg1 mi
4:30 am70 °FFog.1 mph100%29.89 "Hg1 mi
4:00 am72 °FFog.1 mph94%29.89 "Hg1 mi
3:30 am72 °FFog.1 mph94%29.89 "Hg1 mi
3:00 am72 °FFog.3 mph100%29.86 "Hg1 mi
2:30 am72 °FFog.3 mph94%29.89 "Hg1 mi
2:00 am72 °FFog.2 mph94%29.89 "Hg1 mi
1:30 am72 °FFog.2 mph94%29.89 "Hg1 mi
1:00 am72 °FFog.1 mph100%29.92 "Hg1 mi
12:30 am72 °FFog.2 mph100%29.92 "Hg2 mi
12:00 am73 °FFog.1 mph94%29.92 "Hg1 mi
11:30 pm
Mon, Jan 24
73 °FFog.3 mph94%29.92 "Hg1 mi
11:00 pm73 °FFog.3 mph94%29.92 "Hg2 mi
10:30 pm73 °FFog.3 mph94%29.92 "Hg2 mi
10:00 pm73 °FFog.3 mph94%29.92 "Hg2 mi
9:30 pm73 °FFog.6 mph94%29.92 "Hg2 mi
9:00 pm73 °FFog.5 mph94%29.92 "Hg2 mi
8:30 pm73 °FFog.3 mph94%29.92 "Hg3 mi
8:00 pm73 °FPassing clouds.3 mph94%29.89 "Hg4 mi
7:00 pm75 °FPassing clouds.1 mph89%29.89 "Hg4 mi
6:30 pm75 °FPassing clouds.3 mph89%29.89 "Hg4 mi
6:00 pm75 °FPassing clouds.5 mph89%29.86 "Hg4 mi
5:30 pm75 °FScattered clouds.5 mph89%29.86 "Hg4 mi
5:00 pm77 °FScattered clouds.6 mph83%29.86 "Hg4 mi
4:30 pm77 °FScattered clouds.7 mph83%29.86 "Hg4 mi
4:00 pm77 °FPassing clouds.7 mph83%29.86 "Hg4 mi
3:30 pm77 °FScattered clouds.10 mph83%29.83 "Hg4 mi
3:00 pm77 °FScattered clouds.10 mph83%29.86 "Hg4 mi
2:30 pm79 °FPartly sunny.12 mph79%29.83 "Hg4 mi
2:00 pm77 °FPartly sunny.12 mph83%29.86 "Hg4 mi
1:30 pm77 °FPartly sunny.14 mph83%29.86 "Hg4 mi
1:00 pm77 °FPartly sunny.13 mph83%29.86 "Hg4 mi
12:30 pm77 °FScattered clouds.14 mph89%29.89 "Hg4 mi
12:00 pm81 °FPassing clouds.13 mph79%29.89 "Hg4 mi
11:30 am84 °FPassing clouds.7 mph66%29.89 "Hg6 mi
11:00 am82 °FPassing clouds.7 mph70%29.89 "Hg6 mi
10:30 am82 °FPassing clouds.8 mph70%29.92 "Hg6 mi
10:00 am81 °FPassing clouds.6 mph74%29.92 "Hg6 mi
9:30 am81 °FScattered clouds.6 mph74%29.92 "Hg6 mi
9:00 am79 °FScattered clouds.2 mph79%29.92 "Hg5 mi
Weather by CustomWeather, © 2022

See weather overview